createdAt,value
2023-01-13T00:04:55.111Z,10.65
2023-01-13T00:09:58.703Z,10.79
2023-01-13T00:15:03.209Z,10.05
2023-01-13T00:20:07.449Z,9.64
2023-01-13T00:25:10.909Z,10.99
2023-01-13T00:30:15.967Z,9.62
2023-01-13T00:35:19.069Z,9.59
2023-01-13T00:40:22.112Z,8.36
2023-01-13T00:45:26.410Z,9.34
2023-01-13T00:50:31.401Z,10.16
2023-01-13T00:55:34.373Z,8.33
2023-01-13T01:00:38.625Z,10.69
2023-01-13T01:05:41.539Z,10.61
2023-01-13T01:10:44.464Z,10.54
2023-01-13T01:15:49.785Z,10.44
2023-01-13T01:20:53.215Z,10.14
2023-01-13T01:25:56.487Z,10.29
2023-01-13T01:31:02.166Z,9.13
2023-01-13T01:36:05.574Z,9.60
2023-01-13T01:41:08.771Z,10.29
2023-01-13T01:46:13.110Z,8.93
2023-01-13T01:51:16.680Z,9.41
2023-01-13T01:56:22.392Z,10.18
2023-01-13T02:01:26.930Z,10.34
2023-01-13T02:06:31.173Z,10.39
2023-01-13T02:11:53.624Z,10.32
2023-01-13T02:17:12.099Z,10.25
2023-01-13T02:22:33.718Z,9.72
2023-01-13T02:28:27.186Z,10.20
2023-01-13T02:33:43.275Z,10.11
2023-01-13T02:38:52.370Z,9.99
2023-01-13T02:44:08.701Z,10.13
2023-01-13T02:49:19.702Z,10.09
2023-01-13T02:54:26.788Z,10.04
2023-01-13T02:59:32.162Z,9.93
2023-01-13T03:04:52.079Z,9.89
2023-01-13T03:10:04.642Z,9.78
2023-01-13T03:15:14.551Z,9.68
2023-01-13T03:20:26.597Z,9.53
2023-01-13T03:25:32.546Z,9.42
2023-01-13T03:30:41.846Z,9.51
2023-01-13T03:35:50.289Z,9.55
2023-01-13T03:40:57.878Z,9.62
2023-01-13T03:46:05.822Z,9.54
2023-01-13T03:51:17.196Z,9.88
2023-01-13T03:56:26.707Z,9.80
2023-01-13T04:01:36.112Z,9.73
2023-01-13T04:06:48.288Z,9.56
2023-01-13T04:11:56.730Z,9.47
2023-01-13T04:16:59.404Z,9.73
2023-01-13T04:22:03.372Z,9.62
2023-01-13T04:27:06.205Z,9.68
2023-01-13T04:32:08.865Z,9.66
2023-01-13T04:37:12.727Z,9.50
2023-01-13T04:42:15.667Z,9.45
2023-01-13T04:47:18.270Z,9.71
2023-01-13T04:52:22.139Z,9.67
2023-01-13T04:57:24.683Z,9.67
2023-01-13T05:02:27.241Z,9.76
2023-01-13T05:07:31.137Z,9.68
2023-01-13T05:12:51.473Z,9.61
2023-01-13T05:17:54.010Z,9.65
2023-01-13T05:23:15.759Z,9.63
2023-01-13T05:28:18.404Z,9.63
2023-01-13T05:33:21.445Z,9.74
2023-01-13T05:38:25.345Z,9.67
2023-01-13T05:43:28.688Z,9.76
2023-01-13T05:48:33.712Z,9.64
2023-01-13T05:53:37.656Z,9.59
2023-01-13T05:58:40.220Z,9.60
2023-01-13T06:03:43.183Z,9.47
2023-01-13T06:08:47.068Z,9.46
2023-01-13T06:13:49.591Z,9.47
2023-01-13T06:18:52.521Z,9.44
2023-01-13T06:23:56.867Z,9.66
2023-01-13T06:28:59.420Z,9.74
2023-01-13T06:34:08.365Z,9.37
2023-01-13T06:39:17.147Z,9.51
2023-01-13T06:44:23.839Z,9.46
2023-01-13T06:49:26.408Z,9.21
2023-01-13T06:54:30.327Z,9.25
2023-01-13T06:59:34.291Z,9.36
2023-01-13T07:04:36.846Z,9.17
2023-01-13T07:09:40.960Z,9.26
2023-01-13T07:15:13.340Z,9.18
2023-01-13T07:20:16.759Z,9.30
2023-01-13T07:25:20.636Z,9.48
2023-01-13T07:30:23.176Z,9.34
2023-01-13T07:35:25.729Z,9.22
2023-01-13T07:40:29.591Z,9.22
2023-01-13T07:45:32.207Z,9.34
2023-01-13T07:50:34.827Z,9.29
2023-01-13T07:55:43.572Z,9.27
2023-01-13T08:00:46.229Z,9.43
2023-01-13T08:05:49.328Z,9.55
2023-01-13T08:10:53.247Z,9.70
2023-01-13T08:16:01.589Z,9.56
2023-01-13T08:21:06.041Z,9.28
2023-01-13T08:26:12.830Z,9.46
2023-01-13T08:31:17.323Z,9.50
2023-01-13T08:36:20.308Z,9.32
2023-01-13T08:41:38.184Z,9.39
2023-01-13T08:46:42.441Z,9.32
2023-01-13T08:51:45.465Z,9.31
2023-01-13T08:56:49.484Z,9.40
2023-01-13T09:01:52.221Z,9.45
2023-01-13T09:06:55.193Z,9.46
2023-01-13T09:12:16.646Z,9.41
2023-01-13T09:17:19.374Z,9.41
2023-01-13T09:22:26.854Z,9.46
2023-01-13T09:27:30.962Z,9.41
2023-01-13T09:32:34.173Z,9.64
2023-01-13T09:37:38.737Z,9.68
2023-01-13T09:43:05.518Z,9.61
2023-01-13T09:48:14.491Z,9.62
2023-01-13T09:53:22.595Z,9.68
2023-01-13T09:58:26.865Z,9.90
2023-01-13T10:03:30.835Z,9.77
2023-01-13T10:08:35.386Z,10.04
2023-01-13T10:13:39.516Z,10.03
2023-01-13T10:18:51.388Z,10.11
2023-01-13T10:24:07.150Z,10.29
2023-01-13T10:29:22.072Z,10.62
2023-01-13T10:34:27.714Z,10.69
2023-01-13T10:39:40.379Z,10.83
2023-01-13T10:44:53.105Z,10.80
2023-01-13T10:50:18.252Z,10.74
2023-01-13T10:55:28.618Z,10.54
2023-01-13T11:00:36.521Z,10.32
2023-01-13T11:05:39.199Z,10.63
2023-01-13T11:10:47.135Z,10.58
2023-01-13T11:15:58.127Z,10.52
2023-01-13T11:21:01.786Z,10.72
2023-01-13T11:26:11.604Z,10.87
2023-01-13T11:31:21.850Z,10.70
2023-01-13T11:36:29.828Z,10.77
2023-01-13T11:41:42.903Z,10.42
2023-01-13T11:46:49.649Z,10.34
2023-01-13T11:51:58.824Z,10.14
2023-01-13T11:57:20.862Z,10.23
2023-01-13T12:02:43.265Z,10.09
2023-01-13T12:07:59.492Z,10.15
2023-01-13T12:13:10.263Z,10.07
2023-01-13T12:18:28.422Z,10.14
2023-01-13T12:23:36.013Z,10.21
2023-01-13T12:28:48.874Z,10.04
2023-01-13T12:34:05.867Z,10.36
2023-01-13T12:39:18.362Z,10.10
2023-01-13T12:44:21.342Z,9.85
2023-01-13T12:49:30.229Z,9.90
2023-01-13T12:55:18.782Z,9.82
2023-01-13T13:00:21.939Z,9.72
2023-01-13T13:05:41.938Z,9.89
2023-01-13T13:10:59.325Z,9.86
2023-01-13T13:16:46.063Z,10.15
2023-01-13T13:22:19.272Z,10.23
2023-01-13T13:27:27.071Z,9.98
2023-01-13T13:32:52.163Z,10.06
2023-01-13T13:38:27.550Z,9.84
2023-01-13T13:43:51.715Z,10.02
2023-01-13T13:48:55.465Z,10.10
2023-01-13T13:54:02.644Z,10.19
2023-01-13T13:59:05.284Z,9.99
2023-01-13T14:04:15.621Z,10.13
2023-01-13T14:09:20.757Z,10.06
2023-01-13T14:14:24.450Z,9.69
2023-01-13T14:19:33.973Z,9.47
2023-01-13T14:24:47.328Z,9.50
2023-01-13T14:29:58.598Z,9.66
2023-01-13T14:35:07.894Z,9.62
2023-01-13T14:40:51.879Z,9.96
2023-01-13T14:46:00.274Z,10.03
2023-01-13T14:51:11.659Z,9.97
2023-01-13T14:56:46.352Z,9.74
2023-01-13T15:01:55.090Z,9.92
2023-01-13T15:07:05.915Z,9.95
2023-01-13T15:12:40.624Z,9.93
2023-01-13T15:17:49.893Z,9.58
2023-01-13T15:22:54.248Z,9.86
2023-01-13T15:28:04.159Z,9.99
2023-01-13T15:33:13.623Z,10.04
2023-01-13T15:38:23.874Z,10.17
2023-01-13T15:43:51.288Z,10.05
2023-01-13T15:48:58.014Z,10.07
2023-01-13T15:54:02.448Z,10.07
2023-01-13T15:59:18.504Z,10.02
2023-01-13T16:04:27.875Z,9.92
2023-01-13T16:09:32.280Z,10.07
2023-01-13T16:14:39.060Z,10.12
2023-01-13T16:19:43.293Z,9.96
2023-01-13T16:24:45.957Z,10.01
2023-01-13T16:29:50.972Z,10.14
2023-01-13T16:34:53.550Z,9.89
2023-01-13T16:39:56.144Z,10.08
2023-01-13T16:45:06.968Z,10.11
2023-01-13T16:50:23.233Z,9.95
2023-01-13T16:55:26.900Z,9.96
2023-01-13T17:00:31.069Z,10.05
2023-01-13T17:05:33.891Z,9.99
2023-01-13T17:10:36.478Z,10.18
2023-01-13T17:15:40.777Z,10.17
2023-01-13T17:20:43.386Z,9.94
2023-01-13T17:25:45.959Z,9.80
2023-01-13T17:30:50.277Z,9.96
2023-01-13T17:35:52.800Z,9.82
2023-01-13T17:40:55.357Z,10.02
2023-01-13T17:45:59.371Z,9.94
2023-01-13T17:51:03.381Z,9.98
2023-01-13T17:56:07.472Z,9.88
2023-01-13T18:01:14.250Z,9.85
2023-01-13T18:06:19.310Z,9.85
2023-01-13T18:11:23.568Z,9.57
2023-01-13T18:16:30.343Z,9.75
2023-01-13T18:21:50.842Z,9.64
2023-01-13T18:27:10.964Z,9.67
2023-01-13T18:39:03.808Z,9.51
2023-01-13T18:44:06.686Z,9.65
2023-01-13T18:49:09.691Z,9.82
2023-01-13T18:54:16.229Z,9.79
2023-01-13T18:59:18.984Z,9.71
2023-01-13T19:04:21.948Z,9.69
2023-01-13T19:09:27.040Z,9.65
2023-01-13T19:14:37.254Z,9.67
2023-01-13T19:19:42.102Z,9.75
2023-01-13T19:24:46.161Z,9.87
2023-01-13T19:29:52.528Z,10.00
2023-01-13T19:34:59.146Z,9.84
2023-01-13T19:40:08.955Z,9.80
2023-01-13T19:45:30.826Z,9.90
2023-01-13T19:50:38.328Z,10.04
2023-01-13T19:55:47.628Z,9.90
2023-01-13T20:00:50.804Z,9.98
2023-01-13T20:05:54.247Z,9.71
2023-01-13T20:11:19.397Z,9.82
2023-01-13T20:16:21.991Z,9.69
2023-01-13T20:21:24.702Z,9.16
2023-01-13T20:26:28.566Z,9.58
2023-01-13T20:31:31.190Z,9.39
2023-01-13T20:36:37.370Z,8.90
2023-01-13T20:41:59.348Z,9.29
2023-01-13T20:47:02.800Z,9.17
2023-01-13T20:52:09.356Z,9.13
2023-01-13T20:57:14.006Z,9.38
2023-01-13T21:02:17.532Z,9.09
2023-01-13T21:07:20.104Z,9.33
2023-01-13T21:12:41.609Z,9.18
2023-01-13T21:18:01.901Z,9.33
2023-01-13T21:23:05.529Z,8.91
2023-01-13T21:28:11.412Z,8.89
2023-01-13T21:33:14.418Z,9.29
2023-01-13T21:38:17.766Z,9.32
2023-01-13T21:43:39.192Z,9.35
2023-01-13T21:48:41.741Z,9.37
2023-01-13T21:53:44.264Z,9.40
2023-01-13T21:58:48.701Z,9.34
2023-01-13T22:04:08.909Z,9.46
2023-01-13T22:09:12.664Z,9.45
2023-01-13T22:14:16.543Z,9.41
2023-01-13T22:19:19.517Z,9.36
2023-01-13T22:24:22.169Z,9.37
2023-01-13T22:29:26.057Z,9.44
2023-01-13T22:34:28.615Z,9.35
2023-01-13T22:39:31.673Z,9.12
2023-01-13T22:44:35.654Z,9.22
2023-01-13T22:49:38.219Z,9.47
2023-01-13T22:54:40.819Z,9.32
2023-01-13T22:59:44.718Z,9.30
2023-01-13T23:04:47.314Z,9.27
2023-01-13T23:09:49.907Z,9.47
2023-01-13T23:14:54.477Z,9.33
2023-01-13T23:19:57.690Z,9.09
2023-01-13T23:25:00.221Z,9.27
2023-01-13T23:30:06.558Z,9.06
2023-01-13T23:35:09.886Z,8.92
2023-01-13T23:40:13.542Z,8.99
2023-01-13T23:45:17.690Z,9.01
2023-01-13T23:50:20.779Z,9.00
2023-01-13T23:55:23.341Z,8.90
